Terminal Aerodrome Forecast
Issued by NWS

Current Version | Previous Version | Graphics & Text | Print | Product List | Glossary Off
Versions: 1 2 3 4 5 6 7 8 9 10 11 12 13 14 15 16 17

974
FTUS41 KPBZ 200522
TAFHLG
TAF
KHLG 200522Z 2006/2106 22007KT P6SM VCSH OVC008
      TEMPO 2006/2009 OVC015
     FM200900 23007KT P6SM VCSH BKN010
     FM201100 26006KT P6SM BKN015
     FM201500 29008KT P6SM BKN020
     FM202000 30008KT P6SM BKN060=

USA.gov is the U.S. government's official web portal to all federal, state and local government web resources and services.